sensor_id;sensor_type;location;lat;lon;timestamp;P1;durP1;ratioP1;P2;durP2;ratioP2
18649;SDS011;9454;53.516;10.478;2022-10-22T00:01:02;5.40;;;3.97;;
18649;SDS011;9454;53.516;10.478;2022-10-22T00:04:04;7.28;;;4.78;;
18649;SDS011;9454;53.516;10.478;2022-10-22T00:07:09;10.23;;;4.55;;
18649;SDS011;9454;53.516;10.478;2022-10-22T00:10:11;7.00;;;3.80;;
18649;SDS011;9454;53.516;10.478;2022-10-22T00:13:14;7.03;;;4.28;;
18649;SDS011;9454;53.516;10.478;2022-10-22T00:16:17;6.70;;;4.68;;
18649;SDS011;9454;53.516;10.478;2022-10-22T00:19:19;9.35;;;4.30;;
18649;SDS011;9454;53.516;10.478;2022-10-22T00:22:23;7.60;;;4.75;;
18649;SDS011;9454;53.516;10.478;2022-10-22T00:25:27;8.48;;;4.55;;
18649;SDS011;9454;53.516;10.478;2022-10-22T00:28:30;14.52;;;3.85;;
18649;SDS011;9454;53.516;10.478;2022-10-22T00:31:35;9.73;;;4.10;;
18649;SDS011;9454;53.516;10.478;2022-10-22T00:34:37;7.00;;;3.97;;
18649;SDS011;9454;53.516;10.478;2022-10-22T00:37:41;7.13;;;4.05;;
18649;SDS011;9454;53.516;10.478;2022-10-22T00:40:44;14.93;;;4.63;;
18649;SDS011;9454;53.516;10.478;2022-10-22T00:43:53;9.75;;;3.97;;
18649;SDS011;9454;53.516;10.478;2022-10-22T00:46:56;7.15;;;3.75;;
18649;SDS011;9454;53.516;10.478;2022-10-22T00:49:59;7.35;;;4.32;;
18649;SDS011;9454;53.516;10.478;2022-10-22T00:53:03;7.03;;;4.15;;
18649;SDS011;9454;53.516;10.478;2022-10-22T00:56:08;9.90;;;4.20;;
18649;SDS011;9454;53.516;10.478;2022-10-22T00:59:11;7.13;;;4.20;;
18649;SDS011;9454;53.516;10.478;2022-10-22T01:02:15;9.80;;;4.90;;
18649;SDS011;9454;53.516;10.478;2022-10-22T01:05:18;7.32;;;3.58;;
18649;SDS011;9454;53.516;10.478;2022-10-22T01:08:24;8.43;;;3.67;;
18649;SDS011;9454;53.516;10.478;2022-10-22T01:11:31;7.47;;;3.72;;
18649;SDS011;9454;53.516;10.478;2022-10-22T01:14:41;6.60;;;3.38;;
18649;SDS011;9454;53.516;10.478;2022-10-22T01:17:47;5.68;;;4.03;;
18649;SDS011;9454;53.516;10.478;2022-10-22T01:20:57;9.30;;;4.13;;
18649;SDS011;9454;53.516;10.478;2022-10-22T01:24:10;10.80;;;4.47;;
18649;SDS011;9454;53.516;10.478;2022-10-22T01:27:19;10.60;;;4.10;;
18649;SDS011;9454;53.516;10.478;2022-10-22T01:30:27;9.35;;;4.00;;
18649;SDS011;9454;53.516;10.478;2022-10-22T01:33:29;11.13;;;3.83;;
18649;SDS011;9454;53.516;10.478;2022-10-22T01:36:32;7.82;;;4.60;;
18649;SDS011;9454;53.516;10.478;2022-10-22T01:39:36;11.27;;;4.47;;
18649;SDS011;9454;53.516;10.478;2022-10-22T01:42:40;5.10;;;3.95;;
18649;SDS011;9454;53.516;10.478;2022-10-22T01:45:45;8.18;;;3.60;;
18649;SDS011;9454;53.516;10.478;2022-10-22T01:48:58;11.00;;;4.20;;
18649;SDS011;9454;53.516;10.478;2022-10-22T01:52:08;6.43;;;3.85;;
18649;SDS011;9454;53.516;10.478;2022-10-22T01:55:15;9.27;;;4.10;;
18649;SDS011;9454;53.516;10.478;2022-10-22T01:58:21;6.93;;;4.18;;
18649;SDS011;9454;53.516;10.478;2022-10-22T02:01:31;5.93;;;3.67;;
18649;SDS011;9454;53.516;10.478;2022-10-22T02:04:38;9.00;;;4.45;;
18649;SDS011;9454;53.516;10.478;2022-10-22T02:07:44;11.15;;;4.60;;
18649;SDS011;9454;53.516;10.478;2022-10-22T02:10:48;16.75;;;5.03;;
18649;SDS011;9454;53.516;10.478;2022-10-22T02:13:52;9.02;;;4.22;;
18649;SDS011;9454;53.516;10.478;2022-10-22T02:16:57;10.48;;;4.22;;
18649;SDS011;9454;53.516;10.478;2022-10-22T02:20:02;5.30;;;3.35;;
18649;SDS011;9454;53.516;10.478;2022-10-22T02:23:07;6.30;;;3.88;;
18649;SDS011;9454;53.516;10.478;2022-10-22T02:26:10;6.15;;;3.78;;
18649;SDS011;9454;53.516;10.478;2022-10-22T02:29:17;7.75;;;4.35;;
18649;SDS011;9454;53.516;10.478;2022-10-22T02:32:23;10.45;;;4.40;;
18649;SDS011;9454;53.516;10.478;2022-10-22T02:35:27;10.65;;;4.30;;
18649;SDS011;9454;53.516;10.478;2022-10-22T02:38:30;9.18;;;4.75;;
18649;SDS011;9454;53.516;10.478;2022-10-22T02:41:33;4.82;;;3.30;;
18649;SDS011;9454;53.516;10.478;2022-10-22T02:44:36;10.45;;;4.00;;
18649;SDS011;9454;53.516;10.478;2022-10-22T02:47:40;7.22;;;3.15;;
18649;SDS011;9454;53.516;10.478;2022-10-22T02:50:42;7.38;;;3.75;;
18649;SDS011;9454;53.516;10.478;2022-10-22T02:53:45;6.07;;;3.88;;
18649;SDS011;9454;53.516;10.478;2022-10-22T02:56:48;4.43;;;2.95;;
18649;SDS011;9454;53.516;10.478;2022-10-22T02:59:50;6.18;;;3.67;;
18649;SDS011;9454;53.516;10.478;2022-10-22T03:02:54;6.85;;;3.45;;
18649;SDS011;9454;53.516;10.478;2022-10-22T03:05:57;4.80;;;2.90;;
18649;SDS011;9454;53.516;10.478;2022-10-22T03:08:59;6.57;;;3.88;;
18649;SDS011;9454;53.516;10.478;2022-10-22T03:12:03;8.45;;;3.63;;
18649;SDS011;9454;53.516;10.478;2022-10-22T03:15:06;7.20;;;3.45;;
18649;SDS011;9454;53.516;10.478;2022-10-22T03:18:10;4.95;;;2.85;;
18649;SDS011;9454;53.516;10.478;2022-10-22T03:21:18;4.30;;;2.58;;
18649;SDS011;9454;53.516;10.478;2022-10-22T03:24:23;6.20;;;3.67;;
18649;SDS011;9454;53.516;10.478;2022-10-22T03:27:27;8.55;;;3.65;;
18649;SDS011;9454;53.516;10.478;2022-10-22T03:30:30;8.52;;;4.10;;
18649;SDS011;9454;53.516;10.478;2022-10-22T03:33:34;5.38;;;3.63;;
18649;SDS011;9454;53.516;10.478;2022-10-22T03:36:36;7.30;;;3.75;;
18649;SDS011;9454;53.516;10.478;2022-10-22T03:39:39;8.07;;;3.45;;
18649;SDS011;9454;53.516;10.478;2022-10-22T03:42:42;8.05;;;3.35;;
18649;SDS011;9454;53.516;10.478;2022-10-22T03:45:44;10.38;;;3.65;;
18649;SDS011;9454;53.516;10.478;2022-10-22T03:48:49;5.53;;;3.42;;
18649;SDS011;9454;53.516;10.478;2022-10-22T03:51:52;7.13;;;4.03;;
18649;SDS011;9454;53.516;10.478;2022-10-22T03:54:54;8.77;;;3.70;;
18649;SDS011;9454;53.516;10.478;2022-10-22T03:57:57;8.20;;;3.53;;
18649;SDS011;9454;53.516;10.478;2022-10-22T04:01:02;7.07;;;3.92;;
18649;SDS011;9454;53.516;10.478;2022-10-22T04:04:06;10.75;;;4.18;;
18649;SDS011;9454;53.516;10.478;2022-10-22T04:07:09;6.65;;;4.03;;
18649;SDS011;9454;53.516;10.478;2022-10-22T04:10:12;7.45;;;3.83;;
18649;SDS011;9454;53.516;10.478;2022-10-22T04:13:14;5.18;;;3.40;;
18649;SDS011;9454;53.516;10.478;2022-10-22T04:16:17;5.80;;;3.30;;
18649;SDS011;9454;53.516;10.478;2022-10-22T04:19:21;12.02;;;4.53;;
18649;SDS011;9454;53.516;10.478;2022-10-22T04:22:24;10.90;;;4.85;;
18649;SDS011;9454;53.516;10.478;2022-10-22T04:25:26;9.57;;;4.60;;
18649;SDS011;9454;53.516;10.478;2022-10-22T04:28:29;8.32;;;3.53;;
18649;SDS011;9454;53.516;10.478;2022-10-22T04:31:31;9.25;;;3.70;;
18649;SDS011;9454;53.516;10.478;2022-10-22T04:34:35;10.48;;;4.18;;
18649;SDS011;9454;53.516;10.478;2022-10-22T04:37:38;9.70;;;4.18;;
18649;SDS011;9454;53.516;10.478;2022-10-22T04:40:41;8.73;;;4.30;;
18649;SDS011;9454;53.516;10.478;2022-10-22T04:43:44;8.13;;;4.60;;
18649;SDS011;9454;53.516;10.478;2022-10-22T04:46:46;10.73;;;5.18;;
18649;SDS011;9454;53.516;10.478;2022-10-22T04:49:50;16.42;;;5.75;;
18649;SDS011;9454;53.516;10.478;2022-10-22T04:52:53;16.55;;;5.72;;
18649;SDS011;9454;53.516;10.478;2022-10-22T04:56:04;9.20;;;4.65;;
18649;SDS011;9454;53.516;10.478;2022-10-22T04:59:07;9.90;;;5.88;;
18649;SDS011;9454;53.516;10.478;2022-10-22T05:02:10;12.15;;;5.93;;
18649;SDS011;9454;53.516;10.478;2022-10-22T05:05:14;12.70;;;6.45;;
18649;SDS011;9454;53.516;10.478;2022-10-22T05:08:17;11.07;;;6.30;;
18649;SDS011;9454;53.516;10.478;2022-10-22T05:11:20;13.25;;;6.47;;
18649;SDS011;9454;53.516;10.478;2022-10-22T05:14:23;20.17;;;7.38;;
18649;SDS011;9454;53.516;10.478;2022-10-22T05:17:26;12.57;;;5.95;;
18649;SDS011;9454;53.516;10.478;2022-10-22T05:20:30;17.98;;;6.43;;
18649;SDS011;9454;53.516;10.478;2022-10-22T05:23:33;12.00;;;6.00;;
18649;SDS011;9454;53.516;10.478;2022-10-22T05:26:35;16.95;;;7.22;;
18649;SDS011;9454;53.516;10.478;2022-10-22T05:29:38;12.52;;;6.38;;
18649;SDS011;9454;53.516;10.478;2022-10-22T05:32:40;19.73;;;7.45;;
18649;SDS011;9454;53.516;10.478;2022-10-22T05:35:44;14.82;;;7.28;;
18649;SDS011;9454;53.516;10.478;2022-10-22T05:38:47;15.25;;;6.97;;
18649;SDS011;9454;53.516;10.478;2022-10-22T05:41:50;18.15;;;7.40;;
18649;SDS011;9454;53.516;10.478;2022-10-22T05:44:54;11.23;;;6.00;;
18649;SDS011;9454;53.516;10.478;2022-10-22T05:47:56;12.30;;;6.45;;
18649;SDS011;9454;53.516;10.478;2022-10-22T05:51:01;11.30;;;6.53;;
18649;SDS011;9454;53.516;10.478;2022-10-22T05:54:06;14.57;;;6.05;;
18649;SDS011;9454;53.516;10.478;2022-10-22T05:57:11;10.95;;;5.78;;
18649;SDS011;9454;53.516;10.478;2022-10-22T06:00:14;12.60;;;5.47;;
18649;SDS011;9454;53.516;10.478;2022-10-22T06:03:17;18.63;;;5.97;;
18649;SDS011;9454;53.516;10.478;2022-10-22T06:06:21;10.43;;;5.68;;
18649;SDS011;9454;53.516;10.478;2022-10-22T06:09:26;9.27;;;5.50;;
18649;SDS011;9454;53.516;10.478;2022-10-22T06:12:30;12.98;;;6.10;;
18649;SDS011;9454;53.516;10.478;2022-10-22T06:15:32;10.27;;;5.82;;
18649;SDS011;9454;53.516;10.478;2022-10-22T06:18:35;10.68;;;5.60;;
18649;SDS011;9454;53.516;10.478;2022-10-22T06:21:39;8.95;;;5.28;;
18649;SDS011;9454;53.516;10.478;2022-10-22T06:24:41;8.60;;;5.07;;
18649;SDS011;9454;53.516;10.478;2022-10-22T06:27:48;9.70;;;5.50;;
18649;SDS011;9454;53.516;10.478;2022-10-22T06:30:50;8.80;;;5.68;;
18649;SDS011;9454;53.516;10.478;2022-10-22T06:33:53;10.70;;;6.05;;
18649;SDS011;9454;53.516;10.478;2022-10-22T06:36:57;9.35;;;5.72;;
18649;SDS011;9454;53.516;10.478;2022-10-22T06:39:59;10.43;;;5.60;;
18649;SDS011;9454;53.516;10.478;2022-10-22T06:43:02;10.05;;;5.40;;
18649;SDS011;9454;53.516;10.478;2022-10-22T06:46:06;11.90;;;6.63;;
18649;SDS011;9454;53.516;10.478;2022-10-22T06:49:24;16.23;;;6.40;;
18649;SDS011;9454;53.516;10.478;2022-10-22T06:52:28;13.48;;;5.82;;
18649;SDS011;9454;53.516;10.478;2022-10-22T06:55:31;11.18;;;5.75;;
18649;SDS011;9454;53.516;10.478;2022-10-22T06:58:38;15.40;;;6.60;;
18649;SDS011;9454;53.516;10.478;2022-10-22T07:01:41;12.90;;;6.35;;
18649;SDS011;9454;53.516;10.478;2022-10-22T07:04:44;9.02;;;5.78;;
18649;SDS011;9454;53.516;10.478;2022-10-22T07:07:48;12.63;;;6.43;;
18649;SDS011;9454;53.516;10.478;2022-10-22T07:10:51;12.45;;;6.72;;
18649;SDS011;9454;53.516;10.478;2022-10-22T07:13:54;9.70;;;6.20;;
18649;SDS011;9454;53.516;10.478;2022-10-22T07:16:58;11.20;;;6.35;;
18649;SDS011;9454;53.516;10.478;2022-10-22T07:20:01;10.23;;;5.78;;
18649;SDS011;9454;53.516;10.478;2022-10-22T07:23:05;11.50;;;6.28;;
18649;SDS011;9454;53.516;10.478;2022-10-22T07:26:08;14.68;;;5.60;;
18649;SDS011;9454;53.516;10.478;2022-10-22T07:29:12;10.70;;;5.85;;
18649;SDS011;9454;53.516;10.478;2022-10-22T07:32:15;9.70;;;5.60;;
18649;SDS011;9454;53.516;10.478;2022-10-22T07:35:23;11.68;;;5.68;;
18649;SDS011;9454;53.516;10.478;2022-10-22T07:38:27;11.25;;;6.25;;
18649;SDS011;9454;53.516;10.478;2022-10-22T07:41:30;10.27;;;5.72;;
18649;SDS011;9454;53.516;10.478;2022-10-22T07:44:33;10.00;;;5.47;;
18649;SDS011;9454;53.516;10.478;2022-10-22T07:47:35;10.32;;;6.45;;
18649;SDS011;9454;53.516;10.478;2022-10-22T07:50:38;10.77;;;5.80;;
18649;SDS011;9454;53.516;10.478;2022-10-22T07:53:42;10.25;;;6.10;;
18649;SDS011;9454;53.516;10.478;2022-10-22T07:56:45;9.10;;;5.65;;
18649;SDS011;9454;53.516;10.478;2022-10-22T07:59:48;10.48;;;6.30;;
18649;SDS011;9454;53.516;10.478;2022-10-22T08:02:50;16.70;;;6.20;;
18649;SDS011;9454;53.516;10.478;2022-10-22T08:05:57;15.57;;;7.15;;
18649;SDS011;9454;53.516;10.478;2022-10-22T08:09:01;11.38;;;6.47;;
18649;SDS011;9454;53.516;10.478;2022-10-22T08:12:04;10.18;;;6.47;;
18649;SDS011;9454;53.516;10.478;2022-10-22T08:15:07;11.57;;;6.97;;
18649;SDS011;9454;53.516;10.478;2022-10-22T08:18:12;8.40;;;5.25;;
18649;SDS011;9454;53.516;10.478;2022-10-22T08:21:15;13.15;;;6.70;;
18649;SDS011;9454;53.516;10.478;2022-10-22T08:24:19;11.15;;;6.18;;
18649;SDS011;9454;53.516;10.478;2022-10-22T08:27:22;11.25;;;5.47;;
18649;SDS011;9454;53.516;10.478;2022-10-22T08:30:24;12.55;;;6.25;;
18649;SDS011;9454;53.516;10.478;2022-10-22T08:33:29;27.13;;;6.75;;
18649;SDS011;9454;53.516;10.478;2022-10-22T08:36:32;13.32;;;5.85;;
18649;SDS011;9454;53.516;10.478;2022-10-22T08:39:36;10.55;;;5.72;;
18649;SDS011;9454;53.516;10.478;2022-10-22T08:42:49;9.88;;;5.80;;
18649;SDS011;9454;53.516;10.478;2022-10-22T08:46:02;10.13;;;5.57;;
18649;SDS011;9454;53.516;10.478;2022-10-22T08:49:10;8.98;;;5.90;;
18649;SDS011;9454;53.516;10.478;2022-10-22T08:52:15;11.00;;;5.15;;
18649;SDS011;9454;53.516;10.478;2022-10-22T08:55:21;9.32;;;4.40;;
18649;SDS011;9454;53.516;10.478;2022-10-22T08:58:27;9.10;;;4.75;;
18649;SDS011;9454;53.516;10.478;2022-10-22T09:01:32;9.10;;;4.78;;
18649;SDS011;9454;53.516;10.478;2022-10-22T09:04:36;9.02;;;4.43;;
18649;SDS011;9454;53.516;10.478;2022-10-22T09:07:42;7.38;;;4.05;;
18649;SDS011;9454;53.516;10.478;2022-10-22T09:10:52;11.63;;;3.80;;
18649;SDS011;9454;53.516;10.478;2022-10-22T09:13:57;7.70;;;3.97;;
18649;SDS011;9454;53.516;10.478;2022-10-22T09:17:11;8.85;;;4.30;;
18649;SDS011;9454;53.516;10.478;2022-10-22T09:20:15;6.70;;;3.88;;
18649;SDS011;9454;53.516;10.478;2022-10-22T09:23:28;5.80;;;3.40;;
18649;SDS011;9454;53.516;10.478;2022-10-22T09:26:35;9.27;;;3.75;;
18649;SDS011;9454;53.516;10.478;2022-10-22T09:29:39;5.53;;;3.53;;
18649;SDS011;9454;53.516;10.478;2022-10-22T09:32:42;8.48;;;2.90;;
18649;SDS011;9454;53.516;10.478;2022-10-22T09:35:46;10.60;;;4.13;;
18649;SDS011;9454;53.516;10.478;2022-10-22T09:38:50;6.15;;;3.22;;
18649;SDS011;9454;53.516;10.478;2022-10-22T09:41:55;9.68;;;3.63;;
18649;SDS011;9454;53.516;10.478;2022-10-22T09:44:58;10.95;;;3.22;;
18649;SDS011;9454;53.516;10.478;2022-10-22T09:48:02;9.52;;;4.03;;
18649;SDS011;9454;53.516;10.478;2022-10-22T09:51:12;6.50;;;2.90;;
18649;SDS011;9454;53.516;10.478;2022-10-22T09:54:26;8.07;;;3.30;;
18649;SDS011;9454;53.516;10.478;2022-10-22T09:57:44;4.40;;;2.47;;
18649;SDS011;9454;53.516;10.478;2022-10-22T10:01:00;6.75;;;3.10;;
18649;SDS011;9454;53.516;10.478;2022-10-22T10:04:07;6.55;;;3.08;;
18649;SDS011;9454;53.516;10.478;2022-10-22T10:07:23;6.30;;;2.58;;
18649;SDS011;9454;53.516;10.478;2022-10-22T10:10:47;7.38;;;2.85;;
18649;SDS011;9454;53.516;10.478;2022-10-22T10:14:08;5.80;;;2.90;;
18649;SDS011;9454;53.516;10.478;2022-10-22T10:17:23;4.68;;;2.40;;
18649;SDS011;9454;53.516;10.478;2022-10-22T10:20:30;7.22;;;2.72;;
18649;SDS011;9454;53.516;10.478;2022-10-22T10:23:39;7.45;;;3.58;;
18649;SDS011;9454;53.516;10.478;2022-10-22T10:26:45;8.38;;;2.80;;
18649;SDS011;9454;53.516;10.478;2022-10-22T10:29:58;6.97;;;2.60;;
18649;SDS011;9454;53.516;10.478;2022-10-22T10:33:10;4.18;;;2.63;;
18649;SDS011;9454;53.516;10.478;2022-10-22T10:36:23;11.23;;;2.40;;
18649;SDS011;9454;53.516;10.478;2022-10-22T10:39:31;4.82;;;2.22;;
18649;SDS011;9454;53.516;10.478;2022-10-22T10:42:38;9.00;;;2.17;;
18649;SDS011;9454;53.516;10.478;2022-10-22T10:45:55;5.65;;;2.20;;
18649;SDS011;9454;53.516;10.478;2022-10-22T10:49:02;6.10;;;2.78;;
18649;SDS011;9454;53.516;10.478;2022-10-22T10:52:20;6.70;;;2.30;;
18649;SDS011;9454;53.516;10.478;2022-10-22T10:55:33;6.32;;;2.35;;
18649;SDS011;9454;53.516;10.478;2022-10-22T10:58:40;9.00;;;2.58;;
18649;SDS011;9454;53.516;10.478;2022-10-22T11:01:55;4.38;;;2.20;;
18649;SDS011;9454;53.516;10.478;2022-10-22T11:05:04;6.47;;;2.00;;
18649;SDS011;9454;53.516;10.478;2022-10-22T11:08:15;4.72;;;2.20;;
18649;SDS011;9454;53.516;10.478;2022-10-22T11:11:25;6.15;;;2.10;;
18649;SDS011;9454;53.516;10.478;2022-10-22T11:14:37;4.07;;;1.85;;
18649;SDS011;9454;53.516;10.478;2022-10-22T11:17:49;2.97;;;1.90;;
18649;SDS011;9454;53.516;10.478;2022-10-22T11:21:02;5.70;;;1.70;;
18649;SDS011;9454;53.516;10.478;2022-10-22T11:24:16;7.43;;;2.47;;
18649;SDS011;9454;53.516;10.478;2022-10-22T11:27:32;4.00;;;1.73;;
18649;SDS011;9454;53.516;10.478;2022-10-22T11:30:39;8.43;;;1.88;;
18649;SDS011;9454;53.516;10.478;2022-10-22T11:33:47;6.05;;;1.98;;
18649;SDS011;9454;53.516;10.478;2022-10-22T11:37:05;9.73;;;1.85;;
18649;SDS011;9454;53.516;10.478;2022-10-22T11:40:13;5.40;;;1.48;;
18649;SDS011;9454;53.516;10.478;2022-10-22T11:43:26;8.07;;;1.52;;
18649;SDS011;9454;53.516;10.478;2022-10-22T11:46:34;6.45;;;1.38;;
18649;SDS011;9454;53.516;10.478;2022-10-22T11:49:42;4.25;;;1.60;;
18649;SDS011;9454;53.516;10.478;2022-10-22T11:52:52;2.85;;;1.25;;
18649;SDS011;9454;53.516;10.478;2022-10-22T11:56:02;5.60;;;1.45;;
18649;SDS011;9454;53.516;10.478;2022-10-22T11:59:12;8.30;;;1.92;;
18649;SDS011;9454;53.516;10.478;2022-10-22T12:02:40;3.20;;;1.60;;
18649;SDS011;9454;53.516;10.478;2022-10-22T12:05:45;2.85;;;1.27;;
18649;SDS011;9454;53.516;10.478;2022-10-22T12:09:04;7.68;;;2.10;;
18649;SDS011;9454;53.516;10.478;2022-10-22T12:12:11;3.65;;;1.38;;
18649;SDS011;9454;53.516;10.478;2022-10-22T12:15:20;3.15;;;1.50;;
18649;SDS011;9454;53.516;10.478;2022-10-22T12:18:34;3.53;;;1.45;;
18649;SDS011;9454;53.516;10.478;2022-10-22T12:21:42;6.57;;;1.52;;
18649;SDS011;9454;53.516;10.478;2022-10-22T12:24:46;2.95;;;1.23;;
18649;SDS011;9454;53.516;10.478;2022-10-22T12:27:53;6.40;;;1.30;;
18649;SDS011;9454;53.516;10.478;2022-10-22T12:30:58;2.85;;;0.85;;
18649;SDS011;9454;53.516;10.478;2022-10-22T12:34:00;7.57;;;1.70;;
18649;SDS011;9454;53.516;10.478;2022-10-22T12:37:05;3.60;;;1.30;;
18649;SDS011;9454;53.516;10.478;2022-10-22T12:40:15;4.45;;;1.05;;
18649;SDS011;9454;53.516;10.478;2022-10-22T12:43:22;4.30;;;1.42;;
18649;SDS011;9454;53.516;10.478;2022-10-22T12:46:26;4.10;;;1.08;;
18649;SDS011;9454;53.516;10.478;2022-10-22T12:49:32;3.83;;;1.45;;
18649;SDS011;9454;53.516;10.478;2022-10-22T12:52:37;5.72;;;1.60;;
18649;SDS011;9454;53.516;10.478;2022-10-22T12:55:42;7.93;;;1.20;;
18649;SDS011;9454;53.516;10.478;2022-10-22T12:58:48;2.97;;;1.27;;
18649;SDS011;9454;53.516;10.478;2022-10-22T13:01:53;6.63;;;1.20;;
18649;SDS011;9454;53.516;10.478;2022-10-22T13:05:05;3.67;;;1.20;;
18649;SDS011;9454;53.516;10.478;2022-10-22T13:08:15;9.40;;;1.08;;
18649;SDS011;9454;53.516;10.478;2022-10-22T13:11:19;2.55;;;0.90;;
18649;SDS011;9454;53.516;10.478;2022-10-22T13:14:26;3.03;;;1.33;;
18649;SDS011;9454;53.516;10.478;2022-10-22T13:17:39;5.00;;;1.38;;
18649;SDS011;9454;53.516;10.478;2022-10-22T13:20:50;3.35;;;0.95;;
18649;SDS011;9454;53.516;10.478;2022-10-22T13:23:55;2.40;;;1.13;;
18649;SDS011;9454;53.516;10.478;2022-10-22T13:26:59;5.78;;;1.17;;
18649;SDS011;9454;53.516;10.478;2022-10-22T13:30:08;5.85;;;1.48;;
18649;SDS011;9454;53.516;10.478;2022-10-22T13:33:18;9.80;;;1.58;;
18649;SDS011;9454;53.516;10.478;2022-10-22T13:36:24;6.93;;;1.75;;
18649;SDS011;9454;53.516;10.478;2022-10-22T13:39:28;5.43;;;1.30;;
18649;SDS011;9454;53.516;10.478;2022-10-22T13:42:33;4.13;;;1.42;;
18649;SDS011;9454;53.516;10.478;2022-10-22T13:45:36;5.32;;;1.35;;
18649;SDS011;9454;53.516;10.478;2022-10-22T13:48:39;3.15;;;1.42;;
18649;SDS011;9454;53.516;10.478;2022-10-22T13:51:43;3.47;;;1.70;;
18649;SDS011;9454;53.516;10.478;2022-10-22T13:54:47;7.10;;;1.60;;
18649;SDS011;9454;53.516;10.478;2022-10-22T13:57:50;4.95;;;1.48;;
18649;SDS011;9454;53.516;10.478;2022-10-22T14:00:54;3.58;;;1.50;;
18649;SDS011;9454;53.516;10.478;2022-10-22T14:03:58;2.92;;;1.30;;
18649;SDS011;9454;53.516;10.478;2022-10-22T14:07:03;4.03;;;1.40;;
18649;SDS011;9454;53.516;10.478;2022-10-22T14:10:13;8.40;;;1.40;;
18649;SDS011;9454;53.516;10.478;2022-10-22T14:13:17;8.75;;;1.00;;
18649;SDS011;9454;53.516;10.478;2022-10-22T14:16:20;3.00;;;1.50;;
18649;SDS011;9454;53.516;10.478;2022-10-22T14:19:24;8.52;;;1.65;;
18649;SDS011;9454;53.516;10.478;2022-10-22T14:22:27;5.18;;;1.15;;
18649;SDS011;9454;53.516;10.478;2022-10-22T14:25:34;1.75;;;1.23;;
18649;SDS011;9454;53.516;10.478;2022-10-22T14:28:39;7.97;;;1.23;;
18649;SDS011;9454;53.516;10.478;2022-10-22T14:32:02;12.65;;;1.40;;
18649;SDS011;9454;53.516;10.478;2022-10-22T14:35:06;2.20;;;1.60;;
18649;SDS011;9454;53.516;10.478;2022-10-22T14:38:11;3.08;;;1.15;;
18649;SDS011;9454;53.516;10.478;2022-10-22T14:41:17;5.80;;;1.70;;
18649;SDS011;9454;53.516;10.478;2022-10-22T14:44:21;1.90;;;1.15;;
18649;SDS011;9454;53.516;10.478;2022-10-22T14:47:24;3.15;;;1.40;;
18649;SDS011;9454;53.516;10.478;2022-10-22T14:50:27;4.85;;;1.52;;
18649;SDS011;9454;53.516;10.478;2022-10-22T14:53:31;6.32;;;1.60;;
18649;SDS011;9454;53.516;10.478;2022-10-22T14:56:38;8.88;;;1.48;;
18649;SDS011;9454;53.516;10.478;2022-10-22T14:59:40;4.47;;;1.48;;
18649;SDS011;9454;53.516;10.478;2022-10-22T15:02:43;3.60;;;1.67;;
18649;SDS011;9454;53.516;10.478;2022-10-22T15:05:49;6.47;;;1.80;;
18649;SDS011;9454;53.516;10.478;2022-10-22T15:08:54;5.50;;;1.70;;
18649;SDS011;9454;53.516;10.478;2022-10-22T15:11:58;2.78;;;1.50;;
18649;SDS011;9454;53.516;10.478;2022-10-22T15:15:00;5.07;;;1.40;;
18649;SDS011;9454;53.516;10.478;2022-10-22T15:18:03;8.80;;;2.50;;
18649;SDS011;9454;53.516;10.478;2022-10-22T15:21:06;9.18;;;3.08;;
18649;SDS011;9454;53.516;10.478;2022-10-22T15:24:09;4.40;;;1.55;;
18649;SDS011;9454;53.516;10.478;2022-10-22T15:27:14;5.78;;;1.83;;
18649;SDS011;9454;53.516;10.478;2022-10-22T15:30:17;9.68;;;2.53;;
18649;SDS011;9454;53.516;10.478;2022-10-22T15:33:21;5.78;;;1.60;;
18649;SDS011;9454;53.516;10.478;2022-10-22T15:36:23;9.75;;;2.97;;
18649;SDS011;9454;53.516;10.478;2022-10-22T15:39:27;7.05;;;1.70;;
18649;SDS011;9454;53.516;10.478;2022-10-22T15:42:31;5.72;;;1.83;;
18649;SDS011;9454;53.516;10.478;2022-10-22T15:45:33;4.60;;;1.63;;
18649;SDS011;9454;53.516;10.478;2022-10-22T15:48:36;7.25;;;1.65;;
18649;SDS011;9454;53.516;10.478;2022-10-22T15:51:40;7.43;;;1.63;;
18649;SDS011;9454;53.516;10.478;2022-10-22T15:54:43;4.72;;;1.13;;
18649;SDS011;9454;53.516;10.478;2022-10-22T15:57:53;3.72;;;1.08;;
18649;SDS011;9454;53.516;10.478;2022-10-22T16:01:27;7.72;;;1.20;;
18649;SDS011;9454;53.516;10.478;2022-10-22T16:04:49;6.93;;;1.35;;
18649;SDS011;9454;53.516;10.478;2022-10-22T16:08:16;9.00;;;1.80;;
18649;SDS011;9454;53.516;10.478;2022-10-22T16:11:48;4.68;;;1.17;;
18649;SDS011;9454;53.516;10.478;2022-10-22T16:18:42;3.97;;;1.40;;
18649;SDS011;9454;53.516;10.478;2022-10-22T16:22:05;4.45;;;1.65;;
18649;SDS011;9454;53.516;10.478;2022-10-22T16:25:17;7.75;;;1.90;;
18649;SDS011;9454;53.516;10.478;2022-10-22T16:28:19;4.47;;;1.52;;
18649;SDS011;9454;53.516;10.478;2022-10-22T16:31:22;9.27;;;1.60;;
18649;SDS011;9454;53.516;10.478;2022-10-22T16:34:27;6.00;;;1.80;;
18649;SDS011;9454;53.516;10.478;2022-10-22T16:37:29;2.38;;;1.45;;
18649;SDS011;9454;53.516;10.478;2022-10-22T16:40:32;4.53;;;1.90;;
18649;SDS011;9454;53.516;10.478;2022-10-22T16:43:35;4.30;;;1.83;;
18649;SDS011;9454;53.516;10.478;2022-10-22T16:46:38;4.18;;;1.50;;
18649;SDS011;9454;53.516;10.478;2022-10-22T16:49:42;4.60;;;1.60;;
18649;SDS011;9454;53.516;10.478;2022-10-22T16:52:46;4.85;;;1.58;;
18649;SDS011;9454;53.516;10.478;2022-10-22T16:55:51;3.13;;;1.33;;
18649;SDS011;9454;53.516;10.478;2022-10-22T16:58:54;5.15;;;1.67;;
18649;SDS011;9454;53.516;10.478;2022-10-22T17:01:57;5.10;;;1.75;;
18649;SDS011;9454;53.516;10.478;2022-10-22T17:05:02;5.25;;;1.55;;
18649;SDS011;9454;53.516;10.478;2022-10-22T17:08:12;3.80;;;1.48;;
18649;SDS011;9454;53.516;10.478;2022-10-22T17:11:18;2.88;;;1.80;;
18649;SDS011;9454;53.516;10.478;2022-10-22T17:14:21;5.45;;;1.77;;
18649;SDS011;9454;53.516;10.478;2022-10-22T17:17:24;4.13;;;2.08;;
18649;SDS011;9454;53.516;10.478;2022-10-22T17:20:41;4.68;;;1.70;;
18649;SDS011;9454;53.516;10.478;2022-10-22T17:23:44;4.60;;;2.40;;
18649;SDS011;9454;53.516;10.478;2022-10-22T17:26:47;6.22;;;1.92;;
18649;SDS011;9454;53.516;10.478;2022-10-22T17:30:13;8.73;;;3.30;;
18649;SDS011;9454;53.516;10.478;2022-10-22T17:33:17;5.22;;;2.58;;
18649;SDS011;9454;53.516;10.478;2022-10-22T17:36:20;10.68;;;2.45;;
18649;SDS011;9454;53.516;10.478;2022-10-22T17:39:24;6.63;;;2.50;;
18649;SDS011;9454;53.516;10.478;2022-10-22T17:42:27;6.03;;;2.65;;
18649;SDS011;9454;53.516;10.478;2022-10-22T17:45:38;3.75;;;1.70;;
18649;SDS011;9454;53.516;10.478;2022-10-22T17:48:41;2.90;;;1.60;;
18649;SDS011;9454;53.516;10.478;2022-10-22T17:51:44;7.22;;;2.25;;
18649;SDS011;9454;53.516;10.478;2022-10-22T17:54:47;3.88;;;2.95;;
18649;SDS011;9454;53.516;10.478;2022-10-22T17:57:50;6.82;;;2.45;;
18649;SDS011;9454;53.516;10.478;2022-10-22T18:01:06;5.60;;;1.63;;
18649;SDS011;9454;53.516;10.478;2022-10-22T18:04:18;10.57;;;1.40;;
18649;SDS011;9454;53.516;10.478;2022-10-22T18:07:21;3.15;;;1.38;;
18649;SDS011;9454;53.516;10.478;2022-10-22T18:10:23;2.17;;;1.40;;
18649;SDS011;9454;53.516;10.478;2022-10-22T18:13:33;3.75;;;1.58;;
18649;SDS011;9454;53.516;10.478;2022-10-22T18:16:43;9.02;;;2.35;;
18649;SDS011;9454;53.516;10.478;2022-10-22T18:19:46;4.30;;;1.83;;
18649;SDS011;9454;53.516;10.478;2022-10-22T18:22:49;6.65;;;1.45;;
18649;SDS011;9454;53.516;10.478;2022-10-22T18:25:55;4.97;;;1.90;;
18649;SDS011;9454;53.516;10.478;2022-10-22T18:29:00;6.75;;;1.50;;
18649;SDS011;9454;53.516;10.478;2022-10-22T18:32:04;4.13;;;1.45;;
18649;SDS011;9454;53.516;10.478;2022-10-22T18:35:13;2.00;;;1.42;;
18649;SDS011;9454;53.516;10.478;2022-10-22T18:38:16;4.97;;;1.63;;